sensor_id;sensor_type;location;lat;lon;timestamp;temperature;humidity
58993;DHT22;44782;0.000;0.000;2023-10-09T00:00:57;20.60;65.70
58993;DHT22;44782;0.000;0.000;2023-10-09T00:03:28;20.60;65.60
58993;DHT22;44782;0.000;0.000;2023-10-09T00:05:44;20.60;65.50
58993;DHT22;44782;0.000;0.000;2023-10-09T00:08:00;20.60;65.30
58993;DHT22;44782;0.000;0.000;2023-10-09T00:10:18;20.50;65.10
58993;DHT22;44782;0.000;0.000;2023-10-09T00:12:34;20.50;65.10
58993;DHT22;44782;0.000;0.000;2023-10-09T00:14:51;20.50;65.10
58993;DHT22;44782;0.000;0.000;2023-10-09T00:17:10;20.50;65.10
58993;DHT22;44782;0.000;0.000;2023-10-09T00:19:26;20.50;65.00
58993;DHT22;44782;0.000;0.000;2023-10-09T00:21:48;20.50;65.00
58993;DHT22;44782;0.000;0.000;2023-10-09T00:24:04;20.50;64.90
58993;DHT22;44782;0.000;0.000;2023-10-09T00:26:28;20.50;65.00
58993;DHT22;44782;0.000;0.000;2023-10-09T00:28:45;20.40;64.90
58993;DHT22;44782;0.000;0.000;2023-10-09T00:31:05;20.40;64.90
58993;DHT22;44782;0.000;0.000;2023-10-09T00:33:23;20.40;64.90
58993;DHT22;44782;0.000;0.000;2023-10-09T00:35:38;20.40;64.90
58993;DHT22;44782;0.000;0.000;2023-10-09T00:37:57;20.40;64.70
58993;DHT22;44782;0.000;0.000;2023-10-09T00:40:21;20.40;64.80
58993;DHT22;44782;0.000;0.000;2023-10-09T00:42:43;20.40;64.90
58993;DHT22;44782;0.000;0.000;2023-10-09T00:44:59;20.40;64.70
58993;DHT22;44782;0.000;0.000;2023-10-09T00:47:25;20.40;64.70
58993;DHT22;44782;0.000;0.000;2023-10-09T00:49:54;20.40;64.60
58993;DHT22;44782;0.000;0.000;2023-10-09T00:52:15;20.40;64.60
58993;DHT22;44782;0.000;0.000;2023-10-09T00:54:39;20.40;64.50
58993;DHT22;44782;0.000;0.000;2023-10-09T00:56:56;20.30;64.40
58993;DHT22;44782;0.000;0.000;2023-10-09T00:59:16;20.30;64.40
58993;DHT22;44782;0.000;0.000;2023-10-09T01:01:36;20.30;64.30
58993;DHT22;44782;0.000;0.000;2023-10-09T01:03:55;20.30;64.40
58993;DHT22;44782;0.000;0.000;2023-10-09T01:06:12;20.30;64.50
58993;DHT22;44782;0.000;0.000;2023-10-09T01:08:29;20.30;64.30
58993;DHT22;44782;0.000;0.000;2023-10-09T01:10:59;20.30;64.40
58993;DHT22;44782;0.000;0.000;2023-10-09T01:13:25;20.30;64.40
58993;DHT22;44782;0.000;0.000;2023-10-09T01:15:54;20.30;64.40
58993;DHT22;44782;0.000;0.000;2023-10-09T01:18:13;20.30;64.40
58993;DHT22;44782;0.000;0.000;2023-10-09T01:20:29;20.30;64.30
58993;DHT22;44782;0.000;0.000;2023-10-09T01:22:45;20.30;64.30
58993;DHT22;44782;0.000;0.000;2023-10-09T01:25:02;20.20;64.20
58993;DHT22;44782;0.000;0.000;2023-10-09T01:27:21;20.20;64.20
58993;DHT22;44782;0.000;0.000;2023-10-09T01:29:39;20.30;64.20
58993;DHT22;44782;0.000;0.000;2023-10-09T01:31:57;20.30;64.10
58993;DHT22;44782;0.000;0.000;2023-10-09T01:34:16;20.20;64.00
58993;DHT22;44782;0.000;0.000;2023-10-09T01:36:32;20.20;64.00
58993;DHT22;44782;0.000;0.000;2023-10-09T01:38:48;20.20;64.00
58993;DHT22;44782;0.000;0.000;2023-10-09T01:41:15;20.20;64.40
58993;DHT22;44782;0.000;0.000;2023-10-09T01:43:31;20.20;63.90
58993;DHT22;44782;0.000;0.000;2023-10-09T01:45:49;20.20;63.90
58993;DHT22;44782;0.000;0.000;2023-10-09T01:48:07;20.20;64.60
58993;DHT22;44782;0.000;0.000;2023-10-09T01:50:24;20.20;63.90
58993;DHT22;44782;0.000;0.000;2023-10-09T01:52:42;20.20;63.90
58993;DHT22;44782;0.000;0.000;2023-10-09T01:54:58;20.20;63.80
58993;DHT22;44782;0.000;0.000;2023-10-09T01:57:21;20.20;63.80
58993;DHT22;44782;0.000;0.000;2023-10-09T01:59:44;20.20;63.80
58993;DHT22;44782;0.000;0.000;2023-10-09T02:02:00;20.10;63.70
58993;DHT22;44782;0.000;0.000;2023-10-09T02:04:21;20.20;63.70
58993;DHT22;44782;0.000;0.000;2023-10-09T02:06:37;20.10;63.60
58993;DHT22;44782;0.000;0.000;2023-10-09T02:08:56;20.20;63.70
58993;DHT22;44782;0.000;0.000;2023-10-09T02:11:11;20.10;63.50
58993;DHT22;44782;0.000;0.000;2023-10-09T02:13:30;20.10;63.60
58993;DHT22;44782;0.000;0.000;2023-10-09T02:15:47;20.20;63.60
58993;DHT22;44782;0.000;0.000;2023-10-09T02:18:14;20.20;63.70
58993;DHT22;44782;0.000;0.000;2023-10-09T02:23:16;20.10;63.40
58993;DHT22;44782;0.000;0.000;2023-10-09T02:25:32;20.10;63.50
58993;DHT22;44782;0.000;0.000;2023-10-09T02:27:51;20.10;63.50
58993;DHT22;44782;0.000;0.000;2023-10-09T02:30:09;20.10;63.40
58993;DHT22;44782;0.000;0.000;2023-10-09T02:32:31;20.10;63.40
58993;DHT22;44782;0.000;0.000;2023-10-09T02:34:49;20.10;63.50
58993;DHT22;44782;0.000;0.000;2023-10-09T02:37:07;20.10;63.50
58993;DHT22;44782;0.000;0.000;2023-10-09T02:39:28;20.10;63.60
58993;DHT22;44782;0.000;0.000;2023-10-09T02:41:45;20.10;63.60
58993;DHT22;44782;0.000;0.000;2023-10-09T02:44:05;20.10;63.60
58993;DHT22;44782;0.000;0.000;2023-10-09T02:46:26;20.10;63.50
58993;DHT22;44782;0.000;0.000;2023-10-09T02:48:45;20.10;63.60
58993;DHT22;44782;0.000;0.000;2023-10-09T02:51:06;20.10;63.50
58993;DHT22;44782;0.000;0.000;2023-10-09T02:53:22;20.10;63.50
58993;DHT22;44782;0.000;0.000;2023-10-09T02:55:45;20.10;63.50
58993;DHT22;44782;0.000;0.000;2023-10-09T02:58:19;20.10;63.50
58993;DHT22;44782;0.000;0.000;2023-10-09T03:00:38;20.00;63.50
58993;DHT22;44782;0.000;0.000;2023-10-09T03:02:54;20.00;63.40
58993;DHT22;44782;0.000;0.000;2023-10-09T03:05:10;20.10;63.40
58993;DHT22;44782;0.000;0.000;2023-10-09T03:07:27;20.10;63.40
58993;DHT22;44782;0.000;0.000;2023-10-09T03:09:44;20.00;63.40
58993;DHT22;44782;0.000;0.000;2023-10-09T03:12:02;20.00;63.40
58993;DHT22;44782;0.000;0.000;2023-10-09T03:14:18;20.00;63.30
58993;DHT22;44782;0.000;0.000;2023-10-09T03:16:35;20.00;63.30
58993;DHT22;44782;0.000;0.000;2023-10-09T03:18:52;20.00;63.40
58993;DHT22;44782;0.000;0.000;2023-10-09T03:21:08;20.00;63.30
58993;DHT22;44782;0.000;0.000;2023-10-09T03:23:25;20.00;63.20
58993;DHT22;44782;0.000;0.000;2023-10-09T03:25:40;20.00;63.20
58993;DHT22;44782;0.000;0.000;2023-10-09T03:28:00;20.00;63.20
58993;DHT22;44782;0.000;0.000;2023-10-09T03:30:17;20.00;63.20
58993;DHT22;44782;0.000;0.000;2023-10-09T03:32:38;20.00;63.10
58993;DHT22;44782;0.000;0.000;2023-10-09T03:34:54;20.00;63.20
58993;DHT22;44782;0.000;0.000;2023-10-09T03:37:11;20.00;63.20
58993;DHT22;44782;0.000;0.000;2023-10-09T03:39:47;20.00;63.10
58993;DHT22;44782;0.000;0.000;2023-10-09T03:42:03;19.90;63.10
58993;DHT22;44782;0.000;0.000;2023-10-09T03:44:20;19.90;63.00
58993;DHT22;44782;0.000;0.000;2023-10-09T03:46:37;20.00;63.00
58993;DHT22;44782;0.000;0.000;2023-10-09T03:48:53;20.00;63.00
58993;DHT22;44782;0.000;0.000;2023-10-09T03:51:12;20.00;63.00
58993;DHT22;44782;0.000;0.000;2023-10-09T03:53:30;19.90;63.00
58993;DHT22;44782;0.000;0.000;2023-10-09T03:55:46;20.00;63.00
58993;DHT22;44782;0.000;0.000;2023-10-09T03:58:01;19.90;62.90
58993;DHT22;44782;0.000;0.000;2023-10-09T04:00:17;19.90;62.90
58993;DHT22;44782;0.000;0.000;2023-10-09T04:02:44;19.90;62.90
58993;DHT22;44782;0.000;0.000;2023-10-09T04:05:00;19.90;62.90
58993;DHT22;44782;0.000;0.000;2023-10-09T04:07:16;19.90;62.90
58993;DHT22;44782;0.000;0.000;2023-10-09T04:09:31;19.90;62.90
58993;DHT22;44782;0.000;0.000;2023-10-09T04:11:55;19.90;62.80
58993;DHT22;44782;0.000;0.000;2023-10-09T04:14:25;19.90;62.80
58993;DHT22;44782;0.000;0.000;2023-10-09T04:16:51;19.90;62.80
58993;DHT22;44782;0.000;0.000;2023-10-09T04:19:07;19.90;62.80
58993;DHT22;44782;0.000;0.000;2023-10-09T04:21:28;19.90;62.70
58993;DHT22;44782;0.000;0.000;2023-10-09T04:23:45;19.90;62.70
58993;DHT22;44782;0.000;0.000;2023-10-09T04:26:24;19.90;62.60
58993;DHT22;44782;0.000;0.000;2023-10-09T04:28:40;19.90;62.70
58993;DHT22;44782;0.000;0.000;2023-10-09T04:30:57;19.90;62.70
58993;DHT22;44782;0.000;0.000;2023-10-09T04:33:17;19.90;62.60
58993;DHT22;44782;0.000;0.000;2023-10-09T04:35:48;19.90;62.60
58993;DHT22;44782;0.000;0.000;2023-10-09T04:38:23;19.90;63.40
58993;DHT22;44782;0.000;0.000;2023-10-09T04:40:39;19.80;62.60
58993;DHT22;44782;0.000;0.000;2023-10-09T04:43:01;19.80;62.50
58993;DHT22;44782;0.000;0.000;2023-10-09T04:45:21;19.80;62.50
58993;DHT22;44782;0.000;0.000;2023-10-09T04:47:57;19.80;62.50
58993;DHT22;44782;0.000;0.000;2023-10-09T04:50:22;19.80;62.50
58993;DHT22;44782;0.000;0.000;2023-10-09T04:52:46;19.80;62.20
58993;DHT22;44782;0.000;0.000;2023-10-09T04:55:05;19.80;62.00
58993;DHT22;44782;0.000;0.000;2023-10-09T04:57:24;19.80;61.90
58993;DHT22;44782;0.000;0.000;2023-10-09T04:59:40;19.80;62.00
58993;DHT22;44782;0.000;0.000;2023-10-09T05:02:02;19.80;62.10
58993;DHT22;44782;0.000;0.000;2023-10-09T05:04:20;19.80;62.20
58993;DHT22;44782;0.000;0.000;2023-10-09T05:06:50;19.80;62.10
58993;DHT22;44782;0.000;0.000;2023-10-09T05:09:12;19.80;62.20
58993;DHT22;44782;0.000;0.000;2023-10-09T05:11:28;19.80;62.10
58993;DHT22;44782;0.000;0.000;2023-10-09T05:14:08;19.80;62.10
58993;DHT22;44782;0.000;0.000;2023-10-09T05:16:29;19.70;62.20
58993;DHT22;44782;0.000;0.000;2023-10-09T05:18:49;19.80;62.40
58993;DHT22;44782;0.000;0.000;2023-10-09T05:21:39;19.80;62.40
58993;DHT22;44782;0.000;0.000;2023-10-09T05:23:59;19.80;62.10
58993;DHT22;44782;0.000;0.000;2023-10-09T05:26:30;19.80;62.50
58993;DHT22;44782;0.000;0.000;2023-10-09T05:29:06;19.80;62.60
58993;DHT22;44782;0.000;0.000;2023-10-09T05:31:41;19.70;62.70
58993;DHT22;44782;0.000;0.000;2023-10-09T05:34:00;19.80;62.90
58993;DHT22;44782;0.000;0.000;2023-10-09T05:36:18;19.80;63.10
58993;DHT22;44782;0.000;0.000;2023-10-09T05:38:36;19.80;63.20
58993;DHT22;44782;0.000;0.000;2023-10-09T05:41:02;19.70;63.20
58993;DHT22;44782;0.000;0.000;2023-10-09T05:43:38;19.80;63.40
58993;DHT22;44782;0.000;0.000;2023-10-09T05:46:12;19.80;63.50
58993;DHT22;44782;0.000;0.000;2023-10-09T05:48:30;19.80;64.40
58993;DHT22;44782;0.000;0.000;2023-10-09T05:51:09;19.70;63.50
58993;DHT22;44782;0.000;0.000;2023-10-09T05:53:24;19.70;63.50
58993;DHT22;44782;0.000;0.000;2023-10-09T05:55:59;19.80;63.70
58993;DHT22;44782;0.000;0.000;2023-10-09T05:58:33;19.80;63.70
58993;DHT22;44782;0.000;0.000;2023-10-09T06:01:11;19.80;63.80
58993;DHT22;44782;0.000;0.000;2023-10-09T06:03:53;19.70;63.70
58993;DHT22;44782;0.000;0.000;2023-10-09T06:06:27;19.70;63.70
58993;DHT22;44782;0.000;0.000;2023-10-09T06:08:49;19.70;63.90
58993;DHT22;44782;0.000;0.000;2023-10-09T06:11:24;19.70;63.90
58993;DHT22;44782;0.000;0.000;2023-10-09T06:13:49;19.70;63.80
58993;DHT22;44782;0.000;0.000;2023-10-09T06:16:17;19.70;63.80
58993;DHT22;44782;0.000;0.000;2023-10-09T06:18:56;19.70;63.80
58993;DHT22;44782;0.000;0.000;2023-10-09T06:21:23;19.70;63.80
58993;DHT22;44782;0.000;0.000;2023-10-09T06:23:55;19.70;63.90
58993;DHT22;44782;0.000;0.000;2023-10-09T06:26:26;19.70;63.70
58993;DHT22;44782;0.000;0.000;2023-10-09T06:28:42;19.70;63.70
58993;DHT22;44782;0.000;0.000;2023-10-09T06:31:05;19.70;63.70
58993;DHT22;44782;0.000;0.000;2023-10-09T06:33:39;19.70;63.70
58993;DHT22;44782;0.000;0.000;2023-10-09T06:36:14;19.70;63.70
58993;DHT22;44782;0.000;0.000;2023-10-09T06:38:33;19.70;63.70
58993;DHT22;44782;0.000;0.000;2023-10-09T06:41:07;19.70;63.60
58993;DHT22;44782;0.000;0.000;2023-10-09T06:43:50;19.70;63.60
58993;DHT22;44782;0.000;0.000;2023-10-09T06:46:14;19.70;63.60
58993;DHT22;44782;0.000;0.000;2023-10-09T06:48:42;19.70;63.70
58993;DHT22;44782;0.000;0.000;2023-10-09T06:51:04;19.70;63.50
58993;DHT22;44782;0.000;0.000;2023-10-09T06:53:28;19.70;63.40
58993;DHT22;44782;0.000;0.000;2023-10-09T06:56:03;19.70;63.40
58993;DHT22;44782;0.000;0.000;2023-10-09T06:58:22;19.70;63.40
58993;DHT22;44782;0.000;0.000;2023-10-09T07:00:42;19.70;63.40
58993;DHT22;44782;0.000;0.000;2023-10-09T07:03:29;19.70;63.20
58993;DHT22;44782;0.000;0.000;2023-10-09T07:05:48;19.70;63.40
58993;DHT22;44782;0.000;0.000;2023-10-09T07:08:20;19.60;63.20
58993;DHT22;44782;0.000;0.000;2023-10-09T07:10:47;19.70;63.40
58993;DHT22;44782;0.000;0.000;2023-10-09T07:13:18;19.70;63.20
58993;DHT22;44782;0.000;0.000;2023-10-09T07:15:34;19.70;63.20
58993;DHT22;44782;0.000;0.000;2023-10-09T07:18:08;19.70;63.10
58993;DHT22;44782;0.000;0.000;2023-10-09T07:20:38;19.70;63.20
58993;DHT22;44782;0.000;0.000;2023-10-09T07:22:55;19.70;63.10
58993;DHT22;44782;0.000;0.000;2023-10-09T07:25:29;19.70;63.10
58993;DHT22;44782;0.000;0.000;2023-10-09T07:27:56;19.70;63.10
58993;DHT22;44782;0.000;0.000;2023-10-09T07:30:17;19.70;63.10
58993;DHT22;44782;0.000;0.000;2023-10-09T07:32:45;19.70;63.10
58993;DHT22;44782;0.000;0.000;2023-10-09T07:35:03;19.70;63.10
58993;DHT22;44782;0.000;0.000;2023-10-09T07:37:23;19.70;63.10
58993;DHT22;44782;0.000;0.000;2023-10-09T07:39:39;19.70;63.00
58993;DHT22;44782;0.000;0.000;2023-10-09T07:42:05;19.70;63.00
58993;DHT22;44782;0.000;0.000;2023-10-09T07:44:47;19.70;63.10
58993;DHT22;44782;0.000;0.000;2023-10-09T07:47:09;19.70;63.20
58993;DHT22;44782;0.000;0.000;2023-10-09T07:49:44;19.70;63.10
58993;DHT22;44782;0.000;0.000;2023-10-09T07:52:03;19.70;63.10
58993;DHT22;44782;0.000;0.000;2023-10-09T07:54:20;19.70;63.10
58993;DHT22;44782;0.000;0.000;2023-10-09T07:56:49;19.70;63.00
58993;DHT22;44782;0.000;0.000;2023-10-09T07:59:09;19.70;63.00
58993;DHT22;44782;0.000;0.000;2023-10-09T08:01:27;19.70;63.00
58993;DHT22;44782;0.000;0.000;2023-10-09T08:03:51;19.70;63.00
58993;DHT22;44782;0.000;0.000;2023-10-09T08:06:17;19.70;63.00
58993;DHT22;44782;0.000;0.000;2023-10-09T08:08:53;19.70;63.00
58993;DHT22;44782;0.000;0.000;2023-10-09T08:11:18;19.70;63.10
58993;DHT22;44782;0.000;0.000;2023-10-09T08:13:52;19.60;63.00
58993;DHT22;44782;0.000;0.000;2023-10-09T08:16:18;19.60;63.00
58993;DHT22;44782;0.000;0.000;2023-10-09T08:18:37;19.70;63.00
58993;DHT22;44782;0.000;0.000;2023-10-09T08:21:02;19.70;63.00
58993;DHT22;44782;0.000;0.000;2023-10-09T08:23:18;19.60;62.90
58993;DHT22;44782;0.000;0.000;2023-10-09T08:25:48;19.60;62.90
58993;DHT22;44782;0.000;0.000;2023-10-09T08:28:25;19.60;63.00
58993;DHT22;44782;0.000;0.000;2023-10-09T08:30:58;19.60;62.90
58993;DHT22;44782;0.000;0.000;2023-10-09T08:33:34;19.60;63.00
58993;DHT22;44782;0.000;0.000;2023-10-09T08:35:49;19.60;63.00
58993;DHT22;44782;0.000;0.000;2023-10-09T08:38:06;19.60;62.90
58993;DHT22;44782;0.000;0.000;2023-10-09T08:40:41;19.60;62.90
58993;DHT22;44782;0.000;0.000;2023-10-09T08:43:05;19.70;62.70
58993;DHT22;44782;0.000;0.000;2023-10-09T08:45:24;19.60;62.80
58993;DHT22;44782;0.000;0.000;2023-10-09T08:47:40;19.60;62.90
58993;DHT22;44782;0.000;0.000;2023-10-09T08:49:57;19.60;62.90
58993;DHT22;44782;0.000;0.000;2023-10-09T08:52:12;19.60;62.80
58993;DHT22;44782;0.000;0.000;2023-10-09T08:54:29;19.60;62.80
58993;DHT22;44782;0.000;0.000;2023-10-09T08:56:48;19.60;62.80
58993;DHT22;44782;0.000;0.000;2023-10-09T08:59:06;19.60;62.70
58993;DHT22;44782;0.000;0.000;2023-10-09T09:01:23;19.60;62.70
58993;DHT22;44782;0.000;0.000;2023-10-09T09:03:42;19.60;62.70
58993;DHT22;44782;0.000;0.000;2023-10-09T09:06:01;19.60;62.70
58993;DHT22;44782;0.000;0.000;2023-10-09T09:08:27;19.60;62.70
58993;DHT22;44782;0.000;0.000;2023-10-09T09:10:56;19.60;62.50
58993;DHT22;44782;0.000;0.000;2023-10-09T09:13:14;19.60;62.60
58993;DHT22;44782;0.000;0.000;2023-10-09T09:15:33;19.60;62.70
58993;DHT22;44782;0.000;0.000;2023-10-09T09:18:05;19.60;62.70
58993;DHT22;44782;0.000;0.000;2023-10-09T09:20:25;19.60;62.50
58993;DHT22;44782;0.000;0.000;2023-10-09T09:23:01;19.60;62.60
58993;DHT22;44782;0.000;0.000;2023-10-09T09:25:19;19.60;62.70
58993;DHT22;44782;0.000;0.000;2023-10-09T09:27:46;19.60;62.70
58993;DHT22;44782;0.000;0.000;2023-10-09T09:30:25;19.60;62.50
58993;DHT22;44782;0.000;0.000;2023-10-09T09:32:47;19.60;62.40
58993;DHT22;44782;0.000;0.000;2023-10-09T09:35:22;19.60;62.60
58993;DHT22;44782;0.000;0.000;2023-10-09T09:37:52;19.60;62.70
58993;DHT22;44782;0.000;0.000;2023-10-09T09:40:09;19.70;62.50
58993;DHT22;44782;0.000;0.000;2023-10-09T09:42:44;19.60;62.60
58993;DHT22;44782;0.000;0.000;2023-10-09T09:45:04;19.60;62.60
58993;DHT22;44782;0.000;0.000;2023-10-09T09:47:21;19.60;62.60
58993;DHT22;44782;0.000;0.000;2023-10-09T09:49:43;19.60;62.60
58993;DHT22;44782;0.000;0.000;2023-10-09T09:52:02;19.70;62.60
58993;DHT22;44782;0.000;0.000;2023-10-09T09:54:26;19.60;62.50
58993;DHT22;44782;0.000;0.000;2023-10-09T09:56:46;19.60;62.60
58993;DHT22;44782;0.000;0.000;2023-10-09T09:59:08;19.70;62.50
58993;DHT22;44782;0.000;0.000;2023-10-09T10:01:30;19.70;62.50
58993;DHT22;44782;0.000;0.000;2023-10-09T10:03:58;19.70;62.50
58993;DHT22;44782;0.000;0.000;2023-10-09T10:06:20;19.70;62.50
58993;DHT22;44782;0.000;0.000;2023-10-09T10:08:36;19.70;62.50
58993;DHT22;44782;0.000;0.000;2023-10-09T10:10:54;19.70;62.50
58993;DHT22;44782;0.000;0.000;2023-10-09T10:13:14;19.70;62.60
58993;DHT22;44782;0.000;0.000;2023-10-09T10:18:15;19.70;62.20
58993;DHT22;44782;0.000;0.000;2023-10-09T10:21:14;19.70;62.60
58993;DHT22;44782;0.000;0.000;2023-10-09T10:23:31;19.70;62.10
58993;DHT22;44782;0.000;0.000;2023-10-09T10:25:50;19.70;62.60
58993;DHT22;44782;0.000;0.000;2023-10-09T10:28:22;19.70;62.50
58993;DHT22;44782;0.000;0.000;2023-10-09T10:30:51;19.70;62.20
58993;DHT22;44782;0.000;0.000;2023-10-09T10:33:09;19.70;62.50
58993;DHT22;44782;0.000;0.000;2023-10-09T10:35:25;19.70;62.40
58993;DHT22;44782;0.000;0.000;2023-10-09T10:37:59;19.70;62.40
58993;DHT22;44782;0.000;0.000;2023-10-09T10:40:24;19.70;62.40
58993;DHT22;44782;0.000;0.000;2023-10-09T10:42:58;19.70;62.40
58993;DHT22;44782;0.000;0.000;2023-10-09T10:45:24;19.70;62.50
58993;DHT22;44782;0.000;0.000;2023-10-09T10:47:56;19.70;62.40
58993;DHT22;44782;0.000;0.000;2023-10-09T10:50:14;19.70;62.40
58993;DHT22;44782;0.000;0.000;2023-10-09T10:52:51;19.70;62.40
58993;DHT22;44782;0.000;0.000;2023-10-09T10:55:13;19.70;62.40
58993;DHT22;44782;0.000;0.000;2023-10-09T10:57:45;19.70;62.40
58993;DHT22;44782;0.000;0.000;2023-10-09T11:00:12;19.70;62.30
58993;DHT22;44782;0.000;0.000;2023-10-09T11:02:30;19.70;62.30
58993;DHT22;44782;0.000;0.000;2023-10-09T11:04:48;19.70;62.20
58993;DHT22;44782;0.000;0.000;2023-10-09T11:07:21;19.70;62.30
58993;DHT22;44782;0.000;0.000;2023-10-09T11:09:46;19.70;62.20
58993;DHT22;44782;0.000;0.000;2023-10-09T11:12:14;19.70;62.20
58993;DHT22;44782;0.000;0.000;2023-10-09T11:14:47;19.70;62.30
58993;DHT22;44782;0.000;0.000;2023-10-09T11:17:21;19.70;62.00
58993;DHT22;44782;0.000;0.000;2023-10-09T11:19:41;19.70;62.30
58993;DHT22;44782;0.000;0.000;2023-10-09T11:22:02;19.70;62.20
58993;DHT22;44782;0.000;0.000;2023-10-09T11:24:22;19.70;62.60
58993;DHT22;44782;0.000;0.000;2023-10-09T11:26:50;19.70;62.20
58993;DHT22;44782;0.000;0.000;2023-10-09T11:29:22;19.70;62.20
58993;DHT22;44782;0.000;0.000;2023-10-09T11:34:00;19.70;62.10
58993;DHT22;44782;0.000;0.000;2023-10-09T11:36:25;19.70;62.20
58993;DHT22;44782;0.000;0.000;2023-10-09T11:38:49;19.70;62.10
58993;DHT22;44782;0.000;0.000;2023-10-09T11:41:14;19.70;62.20
58993;DHT22;44782;0.000;0.000;2023-10-09T11:43:50;19.70;62.10
58993;DHT22;44782;0.000;0.000;2023-10-09T11:46:15;19.70;62.00
58993;DHT22;44782;0.000;0.000;2023-10-09T11:49:03;19.70;62.20
58993;DHT22;44782;0.000;0.000;2023-10-09T11:51:33;19.80;62.10
58993;DHT22;44782;0.000;0.000;2023-10-09T11:53:56;19.70;62.10
58993;DHT22;44782;0.000;0.000;2023-10-09T11:56:18;19.70;62.20
58993;DHT22;44782;0.000;0.000;2023-10-09T11:58:37;19.70;62.20
58993;DHT22;44782;0.000;0.000;2023-10-09T12:00:59;19.70;62.10
58993;DHT22;44782;0.000;0.000;2023-10-09T12:03:18;19.70;62.10
58993;DHT22;44782;0.000;0.000;2023-10-09T12:05:47;19.70;62.10
58993;DHT22;44782;0.000;0.000;2023-10-09T12:08:12;19.80;62.10
58993;DHT22;44782;0.000;0.000;2023-10-09T12:10:33;19.70;62.20
58993;DHT22;44782;0.000;0.000;2023-10-09T12:12:52;19.70;62.10
58993;DHT22;44782;0.000;0.000;2023-10-09T12:15:08;19.80;62.20
58993;DHT22;44782;0.000;0.000;2023-10-09T12:17:38;19.70;62.10
58993;DHT22;44782;0.000;0.000;2023-10-09T12:20:23;19.80;62.10
58993;DHT22;44782;0.000;0.000;2023-10-09T12:22:53;19.80;62.20
58993;DHT22;44782;0.000;0.000;2023-10-09T12:25:09;19.80;62.10
58993;DHT22;44782;0.000;0.000;2023-10-09T12:27:24;19.80;62.10
58993;DHT22;44782;0.000;0.000;2023-10-09T12:29:40;19.80;62.00
58993;DHT22;44782;0.000;0.000;2023-10-09T12:32:00;19.80;62.00
58993;DHT22;44782;0.000;0.000;2023-10-09T12:34:16;19.80;62.00
58993;DHT22;44782;0.000;0.000;2023-10-09T12:36:32;19.80;62.00
58993;DHT22;44782;0.000;0.000;2023-10-09T12:38:52;19.80;62.00
58993;DHT22;44782;0.000;0.000;2023-10-09T12:41:14;19.80;62.00
58993;DHT22;44782;0.000;0.000;2023-10-09T12:43:40;19.80;62.00
58993;DHT22;44782;0.000;0.000;2023-10-09T12:45:58;19.80;62.00
58993;DHT22;44782;0.000;0.000;2023-10-09T12:48:13;19.80;62.00
58993;DHT22;44782;0.000;0.000;2023-10-09T12:50:30;19.90;62.00
58993;DHT22;44782;0.000;0.000;2023-10-09T12:52:48;19.80;61.90
58993;DHT22;44782;0.000;0.000;2023-10-09T12:55:06;19.80;61.90
58993;DHT22;44782;0.000;0.000;2023-10-09T12:57:36;19.80;61.80
58993;DHT22;44782;0.000;0.000;2023-10-09T12:59:53;19.80;61.80
58993;DHT22;44782;0.000;0.000;2023-10-09T13:02:08;19.80;61.80
58993;DHT22;44782;0.000;0.000;2023-10-09T13:04:26;19.80;61.90
58993;DHT22;44782;0.000;0.000;2023-10-09T13:06:46;19.80;61.80
58993;DHT22;44782;0.000;0.000;2023-10-09T13:09:02;19.90;61.90
58993;DHT22;44782;0.000;0.000;2023-10-09T13:11:22;19.80;61.90
58993;DHT22;44782;0.000;0.000;2023-10-09T13:13:41;19.80;61.70
58993;DHT22;44782;0.000;0.000;2023-10-09T13:16:02;19.90;61.80
58993;DHT22;44782;0.000;0.000;2023-10-09T13:18:21;19.90;61.80
58993;DHT22;44782;0.000;0.000;2023-10-09T13:20:37;19.90;61.70
58993;DHT22;44782;0.000;0.000;2023-10-09T13:22:53;19.90;61.70
58993;DHT22;44782;0.000;0.000;2023-10-09T13:25:10;19.90;61.70
58993;DHT22;44782;0.000;0.000;2023-10-09T13:27:31;19.90;61.70
58993;DHT22;44782;0.000;0.000;2023-10-09T13:29:49;19.90;61.70
58993;DHT22;44782;0.000;0.000;2023-10-09T13:32:07;19.90;61.60
58993;DHT22;44782;0.000;0.000;2023-10-09T13:34:30;19.90;61.60
58993;DHT22;44782;0.000;0.000;2023-10-09T13:36:45;19.90;61.60
58993;DHT22;44782;0.000;0.000;2023-10-09T13:39:12;19.90;61.50
58993;DHT22;44782;0.000;0.000;2023-10-09T13:41:36;19.90;61.50
58993;DHT22;44782;0.000;0.000;2023-10-09T13:43:56;19.90;61.50
58993;DHT22;44782;0.000;0.000;2023-10-09T13:46:14;19.90;61.50
58993;DHT22;44782;0.000;0.000;2023-10-09T13:48:33;19.90;61.50
58993;DHT22;44782;0.000;0.000;2023-10-09T13:50:57;19.90;61.50
58993;DHT22;44782;0.000;0.000;2023-10-09T13:53:14;19.90;61.30
58993;DHT22;44782;0.000;0.000;2023-10-09T13:55:37;19.90;61.40
58993;DHT22;44782;0.000;0.000;2023-10-09T13:57:58;19.90;61.20
58993;DHT22;44782;0.000;0.000;2023-10-09T14:00:14;19.90;61.50
58993;DHT22;44782;0.000;0.000;2023-10-09T14:02:47;19.90;61.30
58993;DHT22;44782;0.000;0.000;2023-10-09T14:05:06;19.90;61.40
58993;DHT22;44782;0.000;0.000;2023-10-09T14:07:23;19.90;61.30
58993;DHT22;44782;0.000;0.000;2023-10-09T14:09:41;19.90;61.30
58993;DHT22;44782;0.000;0.000;2023-10-09T14:12:01;19.90;61.30
58993;DHT22;44782;0.000;0.000;2023-10-09T14:14:26;19.90;61.30
58993;DHT22;44782;0.000;0.000;2023-10-09T14:16:42;19.90;61.30
58993;DHT22;44782;0.000;0.000;2023-10-09T14:18:58;19.90;61.30
58993;DHT22;44782;0.000;0.000;2023-10-09T14:21:27;19.90;61.20
58993;DHT22;44782;0.000;0.000;2023-10-09T14:23:48;19.90;61.10
58993;DHT22;44782;0.000;0.000;2023-10-09T14:26:03;19.90;61.30
58993;DHT22;44782;0.000;0.000;2023-10-09T14:28:21;19.90;61.20
58993;DHT22;44782;0.000;0.000;2023-10-09T14:30:37;19.90;61.20
58993;DHT22;44782;0.000;0.000;2023-10-09T14:32:59;20.00;61.20
58993;DHT22;44782;0.000;0.000;2023-10-09T14:35:17;19.90;61.20
58993;DHT22;44782;0.000;0.000;2023-10-09T14:37:36;19.90;61.20
58993;DHT22;44782;0.000;0.000;2023-10-09T14:39:56;19.90;61.20
58993;DHT22;44782;0.000;0.000;2023-10-09T14:42:12;20.00;61.20
58993;DHT22;44782;0.000;0.000;2023-10-09T14:44:28;19.90;61.10
58993;DHT22;44782;0.000;0.000;2023-10-09T14:46:45;19.90;61.90
58993;DHT22;44782;0.000;0.000;2023-10-09T14:49:01;19.90;61.10
58993;DHT22;44782;0.000;0.000;2023-10-09T14:51:17;19.90;61.20
58993;DHT22;44782;0.000;0.000;2023-10-09T14:53:33;19.90;61.10
58993;DHT22;44782;0.000;0.000;2023-10-09T14:55:59;19.90;61.10
58993;DHT22;44782;0.000;0.000;2023-10-09T14:58:24;20.00;60.90
58993;DHT22;44782;0.000;0.000;2023-10-09T15:00:40;19.90;61.10
58993;DHT22;44782;0.000;0.000;2023-10-09T15:03:02;19.90;61.00
58993;DHT22;44782;0.000;0.000;2023-10-09T15:05:19;20.00;61.10
58993;DHT22;44782;0.000;0.000;2023-10-09T15:07:37;20.00;61.10
58993;DHT22;44782;0.000;0.000;2023-10-09T15:09:54;20.00;61.10
58993;DHT22;44782;0.000;0.000;2023-10-09T15:12:09;20.00;61.00
58993;DHT22;44782;0.000;0.000;2023-10-09T15:14:26;20.00;61.10
58993;DHT22;44782;0.000;0.000;2023-10-09T15:16:42;19.90;61.00
58993;DHT22;44782;0.000;0.000;2023-10-09T15:19:01;20.00;61.00
58993;DHT22;44782;0.000;0.000;2023-10-09T15:21:21;20.00;61.00